Terminal Aerodrome Forecast
Issued by NWS

Home | Current Version | Previous Version | Text Only | Print | Product List | Glossary On
Versions: 1 2 3 4 5 6 7 8 9 10 11 12 13 14 15 16 17
000
FTUS43 KMQT 191720
TAFCMX
TAF
KCMX 191720Z 1918/2018 11013G20KT P6SM -SHRA OVC070
     FM192100 14013G18KT P6SM OVC070
     FM200100 13009KT P6SM VCSH OVC070
     FM200900 VRB03KT 6SM -SHRA OVC025
     FM201200 31007KT 3SM -SHRA OVC003
     FM201600 31013G18KT 4SM -SHRA OVC003=

USA.gov is the U.S. government's official web portal to all federal, state and local government web resources and services.